Alma, New Mexico
Current Conditions -  °F | °C
As of 8:35 PM on Sunday 23 Nov 2014 (Local Time) from KSVC Reporting Station
Clear Clear  
Wind Chill: 30°   Ceiling: Unl
Heat Index: 37°   Visibility: 10mi
Dew Point: -2°   Wind: 10mph
Humidity: 19%   Direction: 320°NW
Pressure: 30.09"   Gusts: NA
Location:  33.3051°N, 108.67°W
Report Text: KSVC 240335Z AUTO 32009KT 10SM CLR 03/M19 A3009 RMK AO2
Loading
Personal Weather Stations






























Interactive Weather Map New forecast layout! Learn more

10-Day Weather Forecast

Advertisements
Track Severe Weather on mobile